Time;durP1;ratioP1;P1;durP2;ratioP2;P2;SDS_P1;SDS_P2;PMS_P1;PMS_P2;Temp;Humidity;BMP_temperature;BMP_pressure;BME280_temperature;BME280_humidity;BME280_pressure;Samples;Min_cycle;Max_cycle;Signal;HPM_P1;HPM_P2
2022/10/31 00:02:32;;;;;;;9.50;4.25;;;;;;;14.91;100.00;100216.34;12209757;19;20034;-81
2022/10/31 00:06:34;;;;;;;8.52;4.22;;;;;;;14.81;100.00;100214.31;12230081;19;20018;-80
2022/10/31 00:10:42;;;;;;;11.50;4.97;;;;;;;14.67;100.00;100222.28;12217038;19;20074;-80
2022/10/31 00:14:44;;;;;;;13.38;6.47;;;;;;;14.42;100.00;100222.06;12188367;19;20089;-81
2022/10/31 00:18:50;;;;;;;12.68;4.72;;;;;;;14.26;100.00;100232.19;12211563;19;20090;-80
2022/10/31 00:22:52;;;;;;;10.27;4.20;;;;;;;14.12;100.00;100227.06;12201796;19;20490;-81
2022/10/31 00:26:53;;;;;;;13.40;4.60;;;;;;;14.06;100.00;100230.91;12218145;19;20038;-81
2022/10/31 00:31:03;;;;;;;8.73;4.47;;;;;;;13.99;100.00;100226.69;12211376;19;20468;-80
2022/10/31 00:35:06;;;;;;;9.00;4.72;;;;;;;13.88;100.00;100234.88;12185090;19;20006;-80
2022/10/31 00:39:08;;;;;;;11.83;5.17;;;;;;;13.82;100.00;100233.16;12209124;19;20648;-80
2022/10/31 00:43:09;;;;;;;16.75;5.32;;;;;;;13.78;100.00;100232.03;12207919;19;20034;-80
2022/10/31 00:47:12;;;;;;;19.48;5.80;;;;;;;13.75;100.00;100237.25;12188501;19;20027;-80
2022/10/31 00:51:14;;;;;;;15.27;6.28;;;;;;;13.73;100.00;100247.75;12207582;19;20006;-80
2022/10/31 00:55:15;;;;;;;18.92;6.95;;;;;;;13.73;100.00;100240.25;12207353;19;20011;-80
2022/10/31 00:59:17;;;;;;;18.55;7.72;;;;;;;13.75;100.00;100248.34;12183440;19;20010;-80
2022/10/31 01:03:19;;;;;;;16.35;7.70;;;;;;;13.72;100.00;100240.53;12205882;19;19998;-80
2022/10/31 01:07:20;;;;;;;16.05;7.63;;;;;;;13.72;100.00;100240.53;12206123;19;20011;-80
2022/10/31 01:11:23;;;;;;;15.07;7.40;;;;;;;13.71;100.00;100252.69;12184650;19;20380;-81
2022/10/31 01:15:24;;;;;;;17.20;8.18;;;;;;;13.68;100.00;100249.38;12202841;19;20007;-81
2022/10/31 01:19:26;;;;;;;25.20;8.65;;;;;;;13.65;100.00;100249.88;12205060;19;20456;-79
2022/10/31 01:23:31;;;;;;;19.63;8.82;;;;;;;13.64;100.00;100248.19;12184022;19;20010;-80
2022/10/31 01:27:33;;;;;;;18.55;8.68;;;;;;;13.64;100.00;100244.59;12204750;19;20011;-80
2022/10/31 01:31:38;;;;;;;20.40;8.88;;;;;;;13.62;100.00;100244.88;12204593;19;20011;-80
2022/10/31 01:35:40;;;;;;;16.65;8.88;;;;;;;13.62;100.00;100247.63;12194643;19;20002;-80
2022/10/31 01:39:41;;;;;;;17.55;8.50;;;;;;;13.61;100.00;100245.94;12215846;19;20493;-80
2022/10/31 01:43:47;;;;;;;18.25;8.25;;;;;;;13.57;100.00;100247.56;12216795;19;20035;-79
2022/10/31 01:47:49;;;;;;;17.88;7.93;;;;;;;13.57;100.00;100246.75;12196207;19;20582;-80
2022/10/31 01:51:56;;;;;;;17.67;8.40;;;;;;;13.55;100.00;100238.69;12218104;19;20007;-80
2022/10/31 01:55:59;;;;;;;15.05;9.02;;;;;;;13.54;100.00;100236.19;12199197;19;20528;-80
2022/10/31 02:00:07;;;;;;;23.45;9.63;;;;;;;13.55;100.00;100232.31;12214346;19;20574;-80
2022/10/31 02:04:15;;;;;;;20.52;9.73;;;;;;;13.54;100.00;100225.94;12214395;19;20353;-80
2022/10/31 02:08:29;;;;;;;24.65;10.43;;;;;;;13.57;100.00;100221.81;12194161;19;20492;-80
2022/10/31 02:12:32;;;;;;;28.05;10.43;;;;;;;13.59;100.00;100223.25;12213948;19;20022;-80
2022/10/31 02:16:34;;;;;;;22.23;10.57;;;;;;;13.61;100.00;100221.03;12214644;19;20014;-80
2022/10/31 02:20:58;;;;;;;21.35;9.85;;;;;;;13.60;100.00;100211.06;12192545;19;20007;-81
2022/10/31 02:25:16;;;;;;;23.25;9.77;;;;;;;13.61;100.00;100215.50;12215148;19;20018;-80
2022/10/31 02:29:37;;;;;;;15.38;8.45;;;;;;;13.62;100.00;100219.94;12191960;19;20059;-80
2022/10/31 02:34:06;;;;;;;22.75;8.57;;;;;;;13.65;100.00;100210.25;12214844;19;20018;-79
2022/10/31 02:38:14;;;;;;;16.48;7.95;;;;;;;13.66;100.00;100212.78;12193474;19;20014;-80
2022/10/31 02:42:32;;;;;;;21.95;8.27;;;;;;;13.68;100.00;100205.06;12213598;19;20022;-80
2022/10/31 02:46:44;;;;;;;17.23;7.95;;;;;;;13.69;100.00;100214.19;12214972;19;20066;-80
2022/10/31 02:51:02;;;;;;;20.63;9.27;;;;;;;13.73;100.00;100206.19;12197911;19;19999;-80
2022/10/31 02:55:22;;;;;;;21.83;8.18;;;;;;;13.74;100.00;100205.97;12273961;19;20002;-79
2022/10/31 02:59:26;;;;;;;18.33;7.47;;;;;;;13.73;100.00;100206.19;12235247;19;20038;-81
2022/10/31 03:03:51;;;;;;;19.58;8.60;;;;;;;13.69;100.00;100208.66;12225467;19;20010;-80
2022/10/31 03:08:34;;;;;;;15.82;7.38;;;;;;;13.50;100.00;100208.16;12240114;19;20021;-80
2022/10/31 03:12:57;;;;;;;22.08;8.00;;;;;;;13.36;100.00;100212.44;12215503;19;20011;-81
2022/10/31 03:17:05;;;;;;;15.03;8.00;;;;;;;13.31;100.00;100220.69;12197358;19;20018;-81
2022/10/31 03:21:14;;;;;;;12.63;7.47;;;;;;;13.32;100.00;100216.81;12216067;19;20099;-81
2022/10/31 03:25:16;;;;;;;21.08;7.60;;;;;;;13.32;100.00;100214.03;12211076;19;20390;-80
2022/10/31 03:29:26;;;;;;;19.58;8.20;;;;;;;13.33;100.00;100210.19;12188435;19;20011;-80
2022/10/31 03:33:31;;;;;;;14.70;7.32;;;;;;;13.36;100.00;100209.69;12210086;19;20119;-82
2022/10/31 03:37:35;;;;;;;18.15;7.75;;;;;;;13.38;100.00;100201.94;12214742;19;20021;-80
2022/10/31 03:41:43;;;;;;;21.42;7.50;;;;;;;13.38;100.00;100205.53;12186883;19;20011;-81
2022/10/31 03:45:47;;;;;;;17.38;7.85;;;;;;;13.39;100.00;100196.16;12214015;19;20078;-81
2022/10/31 03:49:51;;;;;;;24.50;9.38;;;;;;;13.39;100.00;100200.84;12212540;19;20030;-82
2022/10/31 03:54:00;;;;;;;15.30;8.60;;;;;;;13.39;100.00;100187.00;12192970;19;20003;-81
2022/10/31 03:58:47;;;;;;;18.73;9.18;;;;;;;13.39;100.00;100187.84;12210589;19;20027;-81
2022/10/31 04:02:57;;;;;;;17.10;7.28;;;;;;;13.40;100.00;100185.91;12182480;19;20026;-81
2022/10/31 04:07:03;;;;;;;14.23;7.63;;;;;;;13.43;100.00;100175.16;12209049;19;20025;-82
2022/10/31 04:11:08;;;;;;;17.42;7.10;;;;;;;13.45;100.00;100184.03;12190063;19;20007;-82
2022/10/31 04:15:13;;;;;;;14.52;6.75;;;;;;;13.44;100.00;100182.38;12211648;19;20613;-81
2022/10/31 04:19:15;;;;;;;16.00;6.83;;;;;;;13.43;100.00;100182.63;12210483;19;20689;-82
2022/10/31 04:23:25;;;;;;;17.17;6.83;;;;;;;13.39;100.00;100189.78;12187447;19;20023;-81
2022/10/31 04:27:27;;;;;;;14.38;6.13;;;;;;;13.36;100.00;100195.84;12210476;19;20078;-81
2022/10/31 04:31:29;;;;;;;14.32;5.93;;;;;;;13.34;100.00;100198.84;12208747;19;20010;-81
2022/10/31 04:35:32;;;;;;;14.05;6.03;;;;;;;13.32;100.00;100189.13;12188560;19;20415;-81
2022/10/31 04:39:33;;;;;;;12.00;6.38;;;;;;;13.31;100.00;100190.22;12208853;19;20010;-81
2022/10/31 04:44:07;;;;;;;18.77;6.43;;;;;;;13.30;100.00;100194.94;12187428;19;20082;-81
2022/10/31 04:48:09;;;;;;;14.07;6.43;;;;;;;13.30;100.00;100188.56;12209463;19;20512;-81
2022/10/31 04:52:13;;;;;;;19.67;7.05;;;;;;;13.28;100.00;100194.34;12207242;19;20010;-81
2022/10/31 04:56:15;;;;;;;15.02;6.68;;;;;;;13.30;100.00;100199.63;12186671;19;20010;-81
2022/10/31 05:00:22;;;;;;;16.08;7.25;;;;;;;13.28;100.00;100199.88;12213149;19;20581;-80
2022/10/31 05:04:24;;;;;;;15.30;8.07;;;;;;;13.23;100.00;100197.84;12261665;19;20007;-80
2022/10/31 05:08:27;;;;;;;16.38;7.68;;;;;;;13.20;100.00;100192.00;12196147;19;20015;-81
2022/10/31 05:12:30;;;;;;;18.08;7.65;;;;;;;13.12;100.00;100193.31;12228352;19;20003;-81
2022/10/31 05:16:52;;;;;;;15.93;8.30;;;;;;;13.03;100.00;100192.09;12233467;19;20003;-80
2022/10/31 05:21:16;;;;;;;15.65;8.55;;;;;;;12.97;100.00;100193.94;12209006;19;20021;-80
2022/10/31 05:25:26;;;;;;;14.57;6.38;;;;;;;12.87;100.00;100192.97;12230855;19;20098;-81
2022/10/31 05:29:28;;;;;;;18.00;6.85;;;;;;;12.73;100.00;100182.28;12208195;19;20010;-81
2022/10/31 05:33:30;;;;;;;16.08;7.35;;;;;;;12.69;100.00;100186.63;12231437;19;20010;-80
2022/10/31 05:37:51;;;;;;;15.60;6.07;;;;;;;12.67;100.00;100193.50;12232988;19;20014;-81
2022/10/31 05:41:53;;;;;;;14.63;6.28;;;;;;;12.59;100.00;100189.25;12204848;19;20014;-80
2022/10/31 05:46:00;;;;;;;13.57;6.18;;;;;;;12.56;100.00;100192.53;12229987;19;20014;-80
2022/10/31 05:50:21;;;;;;;14.23;6.22;;;;;;;12.49;100.00;100192.72;12213133;19;20027;-81
2022/10/31 05:54:31;;;;;;;11.68;5.53;;;;;;;12.40;100.00;100193.38;12239968;19;20018;-81
2022/10/31 05:58:33;;;;;;;12.32;6.07;;;;;;;12.31;100.00;100188.28;12235536;19;20025;-81
2022/10/31 06:02:38;;;;;;;12.93;7.15;;;;;;;12.21;100.00;100188.13;12221526;19;20006;-80
2022/10/31 06:06:49;;;;;;;11.25;6.38;;;;;;;12.15;100.00;100191.03;12282909;19;20026;-80
2022/10/31 06:10:52;;;;;;;13.98;5.88;;;;;;;12.12;100.00;100186.03;12276077;19;20021;-79
2022/10/31 06:15:08;;;;;;;13.27;6.40;;;;;;;12.10;100.00;100189.03;12225031;19;20010;-81
2022/10/31 06:19:10;;;;;;;17.15;7.22;;;;;;;12.12;100.00;100195.16;12228049;19;20108;-80
2022/10/31 06:23:11;;;;;;;18.65;6.85;;;;;;;12.12;100.00;100181.34;12195647;19;20014;-80
2022/10/31 06:27:15;;;;;;;14.32;7.35;;;;;;;12.09;100.00;100185.44;12220958;19;20021;-80
2022/10/31 06:31:17;;;;;;;11.63;6.20;;;;;;;12.13;100.00;100183.00;12224025;19;20017;-80
2022/10/31 06:35:20;;;;;;;15.73;6.50;;;;;;;12.18;100.00;100185.84;12192875;19;20019;-81
2022/10/31 06:39:25;;;;;;;15.65;6.90;;;;;;;12.27;100.00;100184.34;12219921;19;20019;-80
2022/10/31 06:43:27;;;;;;;16.10;7.28;;;;;;;12.31;100.00;100185.53;12217602;19;20010;-79
2022/10/31 06:47:57;;;;;;;18.77;6.78;;;;;;;12.37;100.00;100193.88;12187143;19;20010;-79
2022/10/31 06:52:40;;;;;;;20.58;8.18;;;;;;;12.42;100.00;100185.66;12207390;19;20006;-79
2022/10/31 06:56:45;;;;;;;14.33;7.77;;;;;;;12.48;100.00;100187.41;12197111;19;20022;-79
2022/10/31 07:00:47;;;;;;;12.88;7.18;;;;;;;12.57;100.00;100199.72;12216740;19;20015;-79
2022/10/31 07:04:50;;;;;;;;;;;;;;;12.65;100.00;100192.94;12222596;19;20015;-78
2022/10/31 07:08:52;;;;;;;14.82;7.15;;;;;;;12.72;100.00;100191.66;12197946;19;19927;-78
2022/10/31 07:12:59;;;;;;;16.88;7.45;;;;;;;12.80;100.00;100200.63;12217451;19;20035;-78
2022/10/31 07:17:04;;;;;;;18.63;8.60;;;;;;;12.89;100.00;100191.59;12195871;19;20022;-79
2022/10/31 07:21:09;;;;;;;20.20;8.48;;;;;;;12.97;100.00;100205.00;12217744;19;20074;-79
2022/10/31 07:25:11;;;;;;;21.38;8.43;;;;;;;13.02;100.00;100195.91;12217289;19;20028;-79
2022/10/31 07:29:39;;;;;;;20.95;8.60;;;;;;;13.06;100.00;100199.88;12195165;19;20019;-79
2022/10/31 07:33:42;;;;;;;19.98;8.95;;;;;;;13.12;100.00;100196.06;12217042;19;20042;-79
2022/10/31 07:38:10;;;;;;;19.88;8.38;;;;;;;13.17;100.00;100198.88;12191426;19;20022;-79
2022/10/31 07:42:12;;;;;;;17.48;8.18;;;;;;;13.24;100.00;100204.25;12214980;19;20014;-79
2022/10/31 07:46:17;;;;;;;16.27;8.40;;;;;;;13.33;100.00;100204.66;12214229;19;20010;-79
2022/10/31 07:50:39;;;;;;;15.57;8.43;;;;;;;13.38;100.00;100201.94;12197439;19;20051;-79
2022/10/31 07:55:00;;;;;;;21.05;10.32;;;;;;;13.45;100.00;100197.06;12217283;19;20030;-79
2022/10/31 07:59:02;;;;;;;19.55;8.88;;;;;;;13.55;100.00;100193.56;12190926;19;20021;-79
2022/10/31 08:03:06;;;;;;;20.50;9.60;;;;;;;13.64;100.00;100191.97;12214318;19;20010;-79
2022/10/31 08:07:47;;;;;;;20.10;8.70;;;;;;;13.74;100.00;100200.41;12215316;19;20021;-79
2022/10/31 08:11:54;;;;;;;19.63;9.13;;;;;;;13.84;100.00;100183.06;12195177;19;20034;-79
2022/10/31 08:16:03;;;;;;;21.37;8.87;;;;;;;14.01;100.00;100182.91;12215013;19;20014;-79
2022/10/31 08:20:08;;;;;;;22.92;9.60;;;;;;;14.24;100.00;100179.78;12195902;19;20017;-80
2022/10/31 08:24:18;;;;;;;22.00;11.30;;;;;;;14.50;100.00;100178.03;12268963;19;20003;-78
2022/10/31 08:28:20;;;;;;;;;;;;;;;14.84;100.00;100182.44;12260163;19;20078;-80
2022/10/31 08:32:24;;;;;;;18.80;8.80;;;;;;;15.27;100.00;100175.72;12200121;19;19938;-80
2022/10/31 08:37:04;;;;;;;22.10;8.70;;;;;;;15.65;100.00;100177.22;12219292;19;20043;-80
2022/10/31 08:41:20;;;;;;;24.92;8.35;;;;;;;15.86;100.00;100172.53;12207548;19;20023;-79
2022/10/31 08:45:22;;;;;;;18.60;8.17;;;;;;;16.03;100.00;100171.44;12233050;19;20006;-80
2022/10/31 08:49:24;;;;;;;17.15;8.77;;;;;;;16.12;100.00;100165.06;12215019;19;20021;-79
2022/10/31 08:53:28;;;;;;;16.20;7.60;;;;;;;16.31;100.00;100154.19;12192038;19;20010;-80
2022/10/31 08:57:57;;;;;;;13.27;7.03;;;;;;;16.50;100.00;100156.41;12212902;19;20007;-79
2022/10/31 09:02:07;;;;;;;14.77;7.10;;;;;;;16.59;100.00;100147.19;12185085;19;20018;-79
2022/10/31 09:06:10;;;;;;;16.23;7.60;;;;;;;16.71;100.00;100148.84;12216291;19;19999;-80
2022/10/31 09:10:12;;;;;;;15.13;5.63;;;;;;;16.80;100.00;100147.16;12210302;19;20018;-80
2022/10/31 09:14:13;;;;;;;14.85;5.38;;;;;;;16.80;100.00;100161.09;12190233;19;20013;-79
2022/10/31 09:18:18;;;;;;;12.50;5.60;;;;;;;16.79;100.00;100163.03;12214059;19;20443;-80
2022/10/31 09:22:31;;;;;;;14.82;5.38;;;;;;;16.93;100.00;100165.25;12209659;19;20046;-80
2022/10/31 09:26:33;;;;;;;9.77;4.35;;;;;;;17.12;100.00;100155.13;12189846;19;20099;-80
2022/10/31 09:30:48;;;;;;;10.27;4.57;;;;;;;17.31;100.00;100152.53;12212379;19;19998;-80
2022/10/31 09:34:57;;;;;;;10.25;5.05;;;;;;;17.52;100.00;100148.53;12211121;19;20081;-80
2022/10/31 09:38:59;;;;;;;14.17;5.03;;;;;;;17.74;100.00;100148.09;12192183;19;20011;-80
2022/10/31 09:43:27;;;;;;;10.70;5.13;;;;;;;17.90;100.00;100145.22;12209093;19;20029;-80
2022/10/31 09:48:04;;;;;;;12.20;6.18;;;;;;;17.99;100.00;100149.91;12190668;19;20014;-80
2022/10/31 09:52:24;;;;;;;14.10;6.20;;;;;;;17.98;100.00;100145.44;12210595;19;20010;-80
2022/10/31 09:56:28;;;;;;;15.10;6.72;;;;;;;17.96;100.00;100141.28;12198855;19;20026;-80
2022/10/31 10:00:34;;;;;;;13.75;6.68;;;;;;;17.97;100.00;100142.97;12217533;19;20125;-80
2022/10/31 10:04:39;;;;;;;;;;;;;;;17.97;100.00;100134.59;12223187;19;20384;-80
2022/10/31 10:08:53;;;;;;;13.20;6.45;;;;;;;17.99;100.00;100141.53;12199816;19;19982;-80
2022/10/31 10:13:21;;;;;;;17.67;7.07;;;;;;;18.05;100.00;100138.69;12220761;19;20085;-81
2022/10/31 10:18:04;;;;;;;18.52;7.15;;;;;;;18.01;100.00;100135.66;12200249;19;20512;-81
2022/10/31 10:22:19;;;;;;;14.98;6.28;;;;;;;18.10;100.00;100128.34;12220817;19;20007;-82
2022/10/31 10:26:27;;;;;;;17.42;7.43;;;;;;;17.97;100.00;100131.81;12201560;19;20041;-81
2022/10/31 10:30:41;;;;;;;18.27;7.22;;;;;;;18.14;100.00;100137.75;12219521;19;20014;-81
2022/10/31 10:34:51;;;;;;;14.38;7.20;;;;;;;18.30;100.00;100123.72;12221716;19;20358;-81
2022/10/31 10:39:24;;;;;;;13.43;6.90;;;;;;;18.30;100.00;100121.75;12198617;19;20372;-81
2022/10/31 10:43:33;;;;;;;15.68;6.57;;;;;;;18.44;100.00;100121.88;12217758;19;20006;-81
2022/10/31 10:47:52;;;;;;;16.52;6.47;;;;;;;18.59;100.00;100105.00;12199241;19;20398;-81
2022/10/31 10:52:08;;;;;;;14.93;6.40;;;;;;;18.70;100.00;100104.84;12221765;19;20104;-81
2022/10/31 10:56:40;;;;;;;13.93;6.65;;;;;;;18.79;100.00;100105.91;12199025;19;20015;-81
2022/10/31 11:00:46;;;;;;;15.65;6.70;;;;;;;18.83;100.00;100107.81;12216727;19;20718;-81
2022/10/31 11:04:53;;;;;;;11.13;6.05;;;;;;;19.01;100.00;100089.44;12217578;19;20019;-81
2022/10/31 11:08:55;;;;;;;14.00;7.15;;;;;;;19.17;100.00;100086.44;12194312;19;20407;-81
2022/10/31 11:13:04;;;;;;;13.90;6.07;;;;;;;19.32;100.00;100075.03;12216520;19;20011;-81
2022/10/31 11:17:24;;;;;;;15.23;6.28;;;;;;;19.51;100.00;100081.47;12197013;19;20023;-81
2022/10/31 11:21:32;;;;;;;12.45;6.57;;;;;;;19.67;100.00;100072.88;12217565;19;20038;-81
2022/10/31 11:25:33;;;;;;;11.02;5.28;;;;;;;19.84;100.00;100050.78;12213114;19;20006;-82
2022/10/31 11:29:36;;;;;;;14.43;5.32;;;;;;;20.10;100.00;100047.50;12193379;19;20348;-81
2022/10/31 11:33:47;;;;;;;12.98;5.40;;;;;;;20.30;98.33;100029.53;12217734;19;20042;-81
2022/10/31 11:37:51;;;;;;;10.95;5.00;;;;;;;20.52;97.11;100037.19;12216894;19;20042;-81
2022/10/31 11:41:54;;;;;;;16.55;5.38;;;;;;;20.82;94.46;100033.81;12195190;19;20050;-79
2022/10/31 11:45:56;;;;;;;12.77;5.30;;;;;;;20.94;94.13;100022.06;12217923;19;20015;-85
2022/10/31 11:50:08;;;;;;;12.52;4.93;;;;;;;21.13;93.24;100007.91;12229963;19;20067;-81
2022/10/31 11:54:27;;;;;;;14.27;5.40;;;;;;;21.24;89.79;100006.53;12203623;19;20022;-81
2022/10/31 11:58:29;;;;;;;13.25;5.38;;;;;;;21.30;89.82;100005.25;12207973;19;20356;-81
2022/10/31 12:02:33;;;;;;;11.35;4.68;;;;;;;21.30;88.17;100004.44;12182938;19;20014;-78
2022/10/31 12:06:46;;;;;;;16.00;5.23;;;;;;;21.26;86.56;100000.59;12212983;19;20027;-81
2022/10/31 12:11:40;;;;;;;10.15;4.72;;;;;;;21.24;84.72;99997.28;12211563;19;20006;-82
2022/10/31 12:15:50;;;;;;;11.40;4.80;;;;;;;21.41;85.43;99996.63;12116345;19;2004529;-81
2022/10/31 12:20:19;;;;;;;13.93;4.95;;;;;;;21.61;83.54;99996.13;12208437;19;20030;-79
2022/10/31 12:24:33;;;;;;;9.07;4.28;;;;;;;21.82;83.02;99994.44;12193099;19;20102;-80
2022/10/31 12:28:51;;;;;;;10.95;5.30;;;;;;;21.88;80.69;100000.75;12215096;19;20030;-79
2022/10/31 12:33:07;;;;;;;9.43;4.50;;;;;;;21.95;80.42;99989.06;12193806;19;20077;-79
2022/10/31 12:37:33;;;;;;;9.68;4.70;;;;;;;21.71;79.97;99984.63;12217110;19;20023;-79
2022/10/31 12:41:45;;;;;;;10.13;5.25;;;;;;;21.39;81.96;99972.56;12188988;19;20020;-82
2022/10/31 12:45:56;;;;;;;11.23;4.83;;;;;;;21.37;82.87;99962.81;12210396;19;20111;-81
2022/10/31 12:50:15;;;;;;;18.65;11.30;;;;;;;21.28;82.39;99953.47;12217797;19;20018;-79
2022/10/31 12:54:52;;;;;;;11.85;5.30;;;;;;;21.14;81.98;99945.09;12193384;19;20010;-81
2022/10/31 12:58:59;;;;;;;9.93;4.97;;;;;;;21.07;83.22;99925.13;12212584;19;20014;-80
2022/10/31 13:03:49;;;;;;;15.57;5.05;;;;;;;21.04;83.53;99917.34;12193294;19;20007;-80
2022/10/31 13:08:20;;;;;;;12.15;4.60;;;;;;;21.02;82.69;99900.03;12210622;19;20029;-81
2022/10/31 13:12:23;;;;;;;12.98;5.55;;;;;;;21.07;83.57;99899.91;12185741;19;20010;-81
2022/10/31 13:16:28;;;;;;;;;;;;;;;21.01;82.61;99898.38;12211301;19;20003;-80
2022/10/31 13:20:34;;;;;;;12.25;4.13;;;;;;;20.95;82.36;99897.66;12188721;19;19932;-78
2022/10/31 13:24:46;;;;;;;10.40;4.18;;;;;;;21.08;83.03;99901.56;12208405;19;20003;-80
2022/10/31 13:28:59;;;;;;;11.52;4.78;;;;;;;21.12;83.19;99894.19;12211769;19;20370;-80
2022/10/31 13:33:09;;;;;;;9.75;5.13;;;;;;;20.99;84.04;99889.44;12202772;19;20026;-80
2022/10/31 13:37:35;;;;;;;12.98;5.28;;;;;;;20.97;85.33;99883.34;12259606;19;20003;-79
2022/10/31 13:42:01;;;;;;;12.82;5.53;;;;;;;20.87;86.55;99887.22;12256429;19;20019;-80
2022/10/31 13:46:22;;;;;;;11.90;5.38;;;;;;;20.72;87.12;99874.41;12262700;19;20019;-83
2022/10/31 13:50:28;;;;;;;10.20;4.72;;;;;;;20.62;88.23;99863.44;12239772;19;20041;-81
2022/10/31 13:54:34;;;;;;;13.32;5.50;;;;;;;20.52;88.78;99850.50;12277221;19;20022;-80
2022/10/31 13:58:36;;;;;;;12.80;4.75;;;;;;;20.43;89.99;99849.56;12236083;19;20014;-81
2022/10/31 14:02:46;;;;;;;9.53;4.90;;;;;;;20.31;91.07;99841.72;12201400;19;20015;-80
2022/10/31 14:06:57;;;;;;;11.27;4.57;;;;;;;20.20;92.19;99835.53;12223939;19;20297;-80
2022/10/31 14:10:59;;;;;;;12.88;5.93;;;;;;;20.11;93.03;99825.38;12223101;19;20086;-80
2022/10/31 14:15:20;;;;;;;9.73;4.78;;;;;;;20.09;94.19;99816.47;12201865;19;20030;-81
2022/10/31 14:19:25;;;;;;;10.50;4.30;;;;;;;20.10;93.48;99807.75;12226053;19;20019;-81
2022/10/31 14:23:30;;;;;;;9.13;3.95;;;;;;;20.21;92.18;99836.34;12200001;19;20015;-81
2022/10/31 14:27:35;;;;;;;9.98;4.22;;;;;;;20.27;90.26;99863.06;12223514;19;20014;-80
2022/10/31 14:31:41;;;;;;;11.23;4.38;;;;;;;20.40;88.29;99865.00;12218800;19;20046;-80
2022/10/31 14:36:10;;;;;;;6.25;4.07;;;;;;;20.58;86.78;99862.41;12198446;19;20002;-81
2022/10/31 14:40:44;;;;;;;8.73;4.57;;;;;;;20.70;84.76;99859.88;12222008;19;20480;-80
2022/10/31 14:45:04;;;;;;;12.35;5.03;;;;;;;20.74;85.09;99863.72;12194710;19;20074;-80
2022/10/31 14:49:36;;;;;;;10.73;4.55;;;;;;;20.59;86.05;99858.50;12221279;19;20405;-80
2022/10/31 14:53:50;;;;;;;10.77;4.55;;;;;;;20.29;88.11;99848.78;12199924;19;20042;-81
2022/10/31 14:57:57;;;;;;;7.85;4.43;;;;;;;19.95;89.85;99864.84;12221773;19;20047;-80
2022/10/31 15:02:07;;;;;;;11.93;4.25;;;;;;;19.71;91.96;99858.63;12220613;19;20035;-81
2022/10/31 15:06:18;;;;;;;10.45;4.20;;;;;;;19.39;93.99;99854.72;12191576;19;20007;-81
2022/10/31 15:10:24;;;;;;;11.88;4.95;;;;;;;19.07;95.56;99836.88;12218038;19;20014;-81
2022/10/31 15:14:31;;;;;;;9.65;4.47;;;;;;;18.82;97.87;99840.09;12198084;19;20010;-80
2022/10/31 15:18:32;;;;;;;11.93;4.93;;;;;;;18.56;99.57;99834.88;12219794;19;20084;-80
2022/10/31 15:22:34;;;;;;;8.27;4.20;;;;;;;18.38;100.00;99832.91;12219563;19;20006;-80
2022/10/31 15:26:40;;;;;;;15.47;4.80;;;;;;;18.22;100.00;99835.09;12197018;19;20018;-82
2022/10/31 15:30:51;;;;;;;8.65;4.93;;;;;;;18.02;100.00;99833.41;12220550;19;20818;-81
2022/10/31 15:34:55;;;;;;;13.50;5.18;;;;;;;17.85;100.00;99842.28;12217385;19;20003;-81
2022/10/31 15:38:57;;;;;;;10.02;4.88;;;;;;;17.72;100.00;99824.25;12195846;19;20073;-81
2022/10/31 15:43:03;;;;;;;10.30;5.18;;;;;;;17.61;100.00;99822.75;12216300;19;20049;-81
2022/10/31 15:47:13;;;;;;;9.18;4.78;;;;;;;17.51;100.00;99811.69;12206361;19;20010;-81
2022/10/31 15:51:26;;;;;;;10.80;5.43;;;;;;;17.44;100.00;99811.22;12216686;19;20007;-81
2022/10/31 15:55:32;;;;;;;11.18;5.13;;;;;;;17.37;100.00;99805.16;12212347;19;20006;-81
2022/10/31 15:59:34;;;;;;;12.75;5.03;;;;;;;17.29;100.00;99799.13;12196812;19;20011;-81
2022/10/31 16:03:36;;;;;;;10.77;5.00;;;;;;;17.22;100.00;99781.09;12259934;19;20007;-80
2022/10/31 16:07:49;;;;;;;16.73;6.07;;;;;;;17.14;100.00;99765.06;12213894;19;20086;-81
2022/10/31 16:11:51;;;;;;;13.98;5.68;;;;;;;17.04;100.00;99752.91;12190576;19;20399;-81
2022/10/31 16:15:57;;;;;;;15.87;6.93;;;;;;;16.99;100.00;99740.97;12213587;19;20082;-81
2022/10/31 16:20:22;;;;;;;15.18;8.43;;;;;;;16.92;100.00;99713.47;12192693;19;20006;-81
2022/10/31 16:24:30;;;;;;;20.23;8.30;;;;;;;16.85;100.00;99649.00;12212050;19;20007;-81
2022/10/31 16:28:33;;;;;;;13.52;5.68;;;;;;;16.74;100.00;99616.81;12212577;19;20042;-81
2022/10/31 16:32:54;;;;;;;15.43;5.35;;;;;;;16.64;100.00;99603.84;12190733;19;20591;-81
2022/10/31 16:36:55;;;;;;;9.88;4.57;;;;;;;16.60;100.00;99639.78;12215219;19;20030;-82
2022/10/31 16:40:57;;;;;;;14.70;5.38;;;;;;;16.71;100.00;99656.34;12217771;19;20007;-81
2022/10/31 16:44:59;;;;;;;11.98;5.05;;;;;;;16.75;100.00;99674.97;12188207;19;20433;-81
2022/10/31 16:49:01;;;;;;;16.10;5.40;;;;;;;16.78;100.00;99687.50;12211183;19;20006;-81
2022/10/31 16:53:03;;;;;;;13.35;5.60;;;;;;;16.74;100.00;99684.41;12211045;19;20017;-81
2022/10/31 16:57:27;;;;;;;14.02;5.82;;;;;;;16.69;100.00;99673.34;12190709;19;20360;-81
2022/10/31 17:01:30;;;;;;;12.40;5.65;;;;;;;16.62;100.00;99667.28;12211761;19;20367;-81
2022/10/31 17:05:32;;;;;;;12.07;5.30;;;;;;;16.55;100.00;99673.19;12187534;19;20035;-81
2022/10/31 17:09:34;;;;;;;10.70;5.10;;;;;;;16.52;100.00;99707.16;12208705;19;20404;-81
2022/10/31 17:13:35;;;;;;;14.35;5.85;;;;;;;16.52;100.00;99739.72;12208499;19;20503;-82
2022/10/31 17:17:37;;;;;;;10.45;5.40;;;;;;;16.59;100.00;99740.19;12189968;19;20003;-81
2022/10/31 17:21:40;;;;;;;;;;;;;;;16.56;100.00;99757.47;12209976;19;20021;-83
2022/10/31 17:25:43;;;;;;;21.10;8.82;;;;;;;16.54;100.00;99745.81;12212096;19;19918;-82
2022/10/31 17:29:45;;;;;;;15.52;7.18;;;;;;;16.52;100.00;99717.47;12189491;19;20011;-81
2022/10/31 17:33:46;;;;;;;13.45;6.63;;;;;;;16.47;100.00;99700.81;12210336;19;20086;-81
2022/10/31 17:37:49;;;;;;;14.35;5.90;;;;;;;16.37;100.00;99682.28;12211609;19;20025;-82
2022/10/31 17:41:51;;;;;;;12.32;5.43;;;;;;;16.29;100.00;99700.41;12189560;19;20484;-81
2022/10/31 17:45:53;;;;;;;11.27;5.93;;;;;;;16.19;100.00;99714.38;12218471;19;20010;-82
2022/10/31 17:49:55;;;;;;;10.80;5.60;;;;;;;16.09;100.00;99697.78;12214451;19;20074;-82
2022/10/31 17:53:57;;;;;;;10.35;5.43;;;;;;;15.92;100.00;99676.78;12200664;19;20031;-82
2022/10/31 17:57:59;;;;;;;14.13;6.57;;;;;;;15.78;100.00;99672.16;12220020;19;20384;-82
2022/10/31 18:02:01;;;;;;;12.88;6.07;;;;;;;15.64;100.00;99671.91;12215468;19;20053;-82
2022/10/31 18:06:04;;;;;;;15.50;5.80;;;;;;;15.49;100.00;99672.84;12192904;19;20476;-82
2022/10/31 18:10:06;;;;;;;12.43;5.95;;;;;;;15.32;100.00;99662.09;12207257;19;20247;-82
2022/10/31 18:14:09;;;;;;;13.15;5.60;;;;;;;15.21;100.00;99671.59;12194454;19;20007;-82
2022/10/31 18:18:11;;;;;;;10.77;5.50;;;;;;;15.12;100.00;99676.06;12228564;19;20111;-82
2022/10/31 18:22:12;;;;;;;12.65;5.72;;;;;;;15.04;100.00;99683.84;12229314;19;20002;-82
2022/10/31 18:26:14;;;;;;;14.00;7.25;;;;;;;14.96;100.00;99686.38;12209417;19;20045;-82
2022/10/31 18:30:17;;;;;;;14.68;7.22;;;;;;;14.84;100.00;99695.00;12227090;19;20013;-82
2022/10/31 18:34:19;;;;;;;19.80;8.82;;;;;;;14.76;100.00;99692.81;12227625;19;20034;-82
2022/10/31 18:38:22;;;;;;;14.18;7.68;;;;;;;14.71;100.00;99690.03;12205122;19;20022;-81
2022/10/31 18:42:23;;;;;;;15.23;8.15;;;;;;;14.63;100.00;99693.38;12227557;19;20006;-82
2022/10/31 18:46:26;;;;;;;16.45;8.00;;;;;;;14.58;100.00;99703.38;12229008;19;20479;-82
2022/10/31 18:50:28;;;;;;;19.00;7.80;;;;;;;14.51;100.00;99702.81;12206283;19;21881;-82